AirNav   Air Wisconsin pilot careers
 
 1004 users online  

0D7 Ada Airport
Ada, Ohio, USA

GOING TO ADA?


FAA INFORMATION EFFECTIVE 21 JUNE 2018

Location

FAA Identifier: 0D7
Lat/Long: 40-47-26.1890N / 083-49-44.7740W
40-47.436483N / 083-49.746233W
40.7906081 / -83.8291039
(estimated)
Elevation: 949 ft. / 289.3 m (surveyed)
Variation: 05W (1985)
From city: 1 mile NW of ADA, OH
Time zone: UTC -4 (UTC -5 during Standard Time)
Zip code: 45810

Airport Operations

Airport use: Open to the public
Control tower: no
ARTCC: INDIANAPOLIS CENTER
FSS: DAYTON FLIGHT SERVICE STATION
NOTAMs facility: DAY (NOTAM-D service available)
Attendance: UNATNDD
Wind indicator: yes
Segmented circle: no

Airport Communications

CTAF/UNICOM: 122.8
WX ASOS at AOH (10 nm SW): 128.725 (419-224-6098)
WX ASOS at FDY (15 nm NE): 132.85 (419-427-8524)
WX AWOS-3 at OWX (16 nm NW): 120.525 (419-523-4151)

Nearby radio navigation aids

VOR radial/distance  VOR name  Freq  Var
FBCr201/10.4FLAG CITY VORTAC108.2002W
RODr023/31.7ROSEWOOD VORTAC117.5005W
BUDr292/(36.3)BUCKEYE VOR109.8005W

 
NDB name  Hdg/Dist  Freq  Var  ID
TIFFIN242/33.326905WTII - .. ..

Airport Services

Parking: tiedowns

Runway Information

Runway 9/27

Dimensions: 1955 x 110 ft. / 596 x 34 m
Surface: turf, in fair condition
Runway edge markings: RWY EDGE MARKED WITH CONES.
RUNWAY 9  RUNWAY 27
Latitude: 40-47.436167N40-47.436167N
Longitude: 083-49.958500W083-49.530500W
Elevation: 949.0 ft.949.0 ft.
Gradient: 0.3%0.3%
Traffic pattern: leftleft
Runway end identifier lights: nono
Obstructions: 60 ft. tree, 100 ft. left of centerline
RWY 27: +36 FT MKD PLINE 700FT FM RWY 27 THLD
55 ft. tree, 10 ft. from runway, 105 ft. right of centerline

Airport Ownership and Management from official FAA records

Ownership: Privately-owned
Owner: KEVIN A. MIERZEJEWSKI
1665 PEVEE ROAD
ADA, OH 45810
Phone 419-649-4184
ADDL CTC: KEV517@YAHOO.COM
Manager: KEVIN A. MIERZEJEWSKI
2646 AIRPORT RD
ADA, OH 45810
Phone 419-649-4184

Airport Operational Statistics

Aircraft based on the field: 14
Single engine airplanes: 11
Ultralights: 3
    
Aircraft operations: avg 46/month *
90% local general aviation
9% transient general aviation
1% military
* for 12-month period ending 29 July 2017

Additional Remarks

DEER, BIRDS AND OTHER WILDLIFE ON & INVOF ARPT.
ULTRALIGHT ACTIVITY ON AND INVOF OF ARPT.
RWY 09/27: NIGHT OPERATIONS RESTRICTED, CTC APRT MGR

Instrument Procedures

There are no published instrument procedures at 0D7.

Some nearby airports with instrument procedures:

5G7 - Bluffton Airport (6 nm N)
KAOH - Lima Allen County Airport (10 nm SW)
I95 - Hardin County Airport (14 nm SE)
KFDY - Findlay Airport (15 nm NE)
KOWX - Putnam County Airport (16 nm NW)
 
Loc | Ops | Rwys | IFR | FBO | Links
Com | Nav | Svcs | Stats | Notes

City of Findlay
 
Area around 0D7 (Ada Airport)
 
Road maps at: MapQuest Bing Google
 
Aerial photo
WARNING: Photo may not be current or correct
Aerial photo of 0D7 (Ada Airport)
Do you have a better or more recent aerial photo of Ada Airport that you would like to share? If so, please send us your photo.

 
Sectional chart

 
Airport distance calculator
Flying to Ada Airport? Find the distance to fly.

From to 0D7

Sunrise and sunset
Times for 15-Jul-2018
 Local
(UTC-4)
 Zulu
(UTC)
Morning civil twilight05:4509:45
Sunrise06:1810:18
Sunset21:0501:05
Evening civil twilight21:3701:37

Current date and time
Zulu (UTC)  15-Jul-2018 23:51:46
Local (UTC-4)  15-Jul-2018 19:51:46
 
METAR
KAOH 
10nm SW 
152253Z AUTO 22007KT 10SM CLR 30/21 A2997 RMK AO2 SLP141 T03000211
KFDY 
15nm NE 
152253Z AUTO 22009KT 10SM CLR 31/18 A2995 RMK AO2 SLP131 T03110183
KOWX 
16nm NW 
152335Z AUTO 25005KT 10SM CLR 28/19 A2997 RMK AO1
TAF
KFDY 
15nm NE 
151731Z 1518/1618 22005KT P6SM SCT035 FM161000 VRB03KT 5SM BR SCT080 FM161300 24007KT P6SM SCT035
NOTAMs
Click for the latest NOTAMs
NOTAMs are issued by the DoD/FAA and will open in a separate window not controlled by AirNav.

 

 
 

Would you like to see your business listed on this page?

 If your business provides an interesting product or service to pilots, flight crews, aircraft, or users of the Ada Airport, you should consider listing it here.  To start the listing process, click on the button below
 
Add a business
 

Other Pages about Ada Airport

Update a link
 
Copyright © AirNav, LLC. All rights reserved. Privacy Policy  Contact